sensor_id;sensor_type;location;lat;lon;timestamp;P1;durP1;ratioP1;P2;durP2;ratioP2
11066;SDS011;29763;50.904;5.530;2023-07-22T01:23:01;6.78;;;6.07;;
11066;SDS011;29763;50.904;5.530;2023-07-22T01:25:42;7.13;;;6.13;;
11066;SDS011;29763;50.904;5.530;2023-07-22T01:28:11;7.85;;;6.38;;
11066;SDS011;29763;50.904;5.530;2023-07-22T01:30:38;8.30;;;7.28;;
11066;SDS011;29763;50.904;5.530;2023-07-22T01:33:06;8.60;;;7.13;;
11066;SDS011;29763;50.904;5.530;2023-07-22T01:35:34;7.80;;;7.00;;
11066;SDS011;29763;50.904;5.530;2023-07-22T01:38:00;8.63;;;7.28;;
11066;SDS011;29763;50.904;5.530;2023-07-22T01:40:32;7.82;;;7.05;;
11066;SDS011;29763;50.904;5.530;2023-07-22T01:42:59;10.02;;;7.10;;
11066;SDS011;29763;50.904;5.530;2023-07-22T01:45:26;7.72;;;6.93;;
11066;SDS011;29763;50.904;5.530;2023-07-22T01:47:53;7.40;;;6.70;;
11066;SDS011;29763;50.904;5.530;2023-07-22T01:50:19;7.18;;;6.47;;
11066;SDS011;29763;50.904;5.530;2023-07-22T01:52:45;9.48;;;7.30;;
11066;SDS011;29763;50.904;5.530;2023-07-22T01:55:12;8.30;;;6.95;;
11066;SDS011;29763;50.904;5.530;2023-07-22T01:57:38;8.05;;;7.05;;
11066;SDS011;29763;50.904;5.530;2023-07-22T02:00:05;7.70;;;7.00;;
11066;SDS011;29763;50.904;5.530;2023-07-22T02:02:43;8.07;;;7.28;;
11066;SDS011;29763;50.904;5.530;2023-07-22T02:05:15;8.88;;;7.88;;
11066;SDS011;29763;50.904;5.530;2023-07-22T02:07:41;8.88;;;6.93;;
11066;SDS011;29763;50.904;5.530;2023-07-22T02:10:07;8.45;;;6.70;;
11066;SDS011;29763;50.904;5.530;2023-07-22T02:12:35;7.35;;;6.65;;
11066;SDS011;29763;50.904;5.530;2023-07-22T02:15:01;8.65;;;6.88;;
11066;SDS011;29763;50.904;5.530;2023-07-22T02:17:28;8.00;;;6.47;;
11066;SDS011;29763;50.904;5.530;2023-07-22T02:19:57;7.35;;;6.15;;
11066;SDS011;29763;50.904;5.530;2023-07-22T02:22:23;7.38;;;6.22;;
11066;SDS011;29763;50.904;5.530;2023-07-22T02:24:49;7.00;;;6.30;;
11066;SDS011;29763;50.904;5.530;2023-07-22T02:27:16;7.07;;;6.38;;
11066;SDS011;29763;50.904;5.530;2023-07-22T02:29:42;7.55;;;6.45;;
11066;SDS011;29763;50.904;5.530;2023-07-22T02:32:09;7.40;;;6.45;;
11066;SDS011;29763;50.904;5.530;2023-07-22T02:34:34;8.20;;;6.63;;
11066;SDS011;29763;50.904;5.530;2023-07-22T02:37:02;11.00;;;6.55;;
11066;SDS011;29763;50.904;5.530;2023-07-22T02:39:28;7.50;;;6.80;;
11066;SDS011;29763;50.904;5.530;2023-07-22T02:41:55;9.32;;;6.75;;
11066;SDS011;29763;50.904;5.530;2023-07-22T02:44:22;7.40;;;6.68;;
11066;SDS011;29763;50.904;5.530;2023-07-22T02:46:49;6.43;;;5.82;;
11066;SDS011;29763;50.904;5.530;2023-07-22T02:49:20;6.78;;;6.18;;
11066;SDS011;29763;50.904;5.530;2023-07-22T02:51:46;7.75;;;6.57;;
11066;SDS011;29763;50.904;5.530;2023-07-22T02:54:12;8.30;;;7.20;;
11066;SDS011;29763;50.904;5.530;2023-07-22T02:56:40;7.45;;;6.75;;
11066;SDS011;29763;50.904;5.530;2023-07-22T02:59:06;7.85;;;7.05;;
11066;SDS011;29763;50.904;5.530;2023-07-22T03:01:33;7.82;;;6.85;;
11066;SDS011;29763;50.904;5.530;2023-07-22T03:03:59;7.53;;;6.75;;
11066;SDS011;29763;50.904;5.530;2023-07-22T03:06:26;7.40;;;6.68;;
11066;SDS011;29763;50.904;5.530;2023-07-22T03:08:53;8.35;;;6.82;;
11066;SDS011;29763;50.904;5.530;2023-07-22T03:11:19;7.57;;;6.85;;
11066;SDS011;29763;50.904;5.530;2023-07-22T03:13:47;7.78;;;6.75;;
11066;SDS011;29763;50.904;5.530;2023-07-22T03:16:12;8.93;;;7.30;;
11066;SDS011;29763;50.904;5.530;2023-07-22T03:18:40;9.02;;;6.90;;
11066;SDS011;29763;50.904;5.530;2023-07-22T03:21:08;11.82;;;7.25;;
11066;SDS011;29763;50.904;5.530;2023-07-22T03:23:34;8.70;;;7.18;;
11066;SDS011;29763;50.904;5.530;2023-07-22T03:26:01;8.38;;;6.60;;
11066;SDS011;29763;50.904;5.530;2023-07-22T03:28:28;8.85;;;7.75;;
11066;SDS011;29763;50.904;5.530;2023-07-22T03:30:54;8.07;;;7.28;;
11066;SDS011;29763;50.904;5.530;2023-07-22T03:33:20;9.02;;;6.90;;
11066;SDS011;29763;50.904;5.530;2023-07-22T03:35:47;10.73;;;7.32;;
11066;SDS011;29763;50.904;5.530;2023-07-22T03:38:12;8.10;;;7.22;;
11066;SDS011;29763;50.904;5.530;2023-07-22T03:40:39;8.80;;;7.32;;
11066;SDS011;29763;50.904;5.530;2023-07-22T03:43:05;8.07;;;7.00;;
11066;SDS011;29763;50.904;5.530;2023-07-22T03:45:34;8.15;;;7.15;;
11066;SDS011;29763;50.904;5.530;2023-07-22T03:48:16;8.23;;;6.70;;
11066;SDS011;29763;50.904;5.530;2023-07-22T03:50:43;8.45;;;7.47;;
11066;SDS011;29763;50.904;5.530;2023-07-22T03:53:09;9.15;;;7.38;;
11066;SDS011;29763;50.904;5.530;2023-07-22T03:55:36;7.95;;;6.95;;
11066;SDS011;29763;50.904;5.530;2023-07-22T03:58:03;8.13;;;6.75;;
11066;SDS011;29763;50.904;5.530;2023-07-22T04:00:47;9.50;;;7.82;;
11066;SDS011;29763;50.904;5.530;2023-07-22T04:03:16;10.65;;;7.15;;
11066;SDS011;29763;50.904;5.530;2023-07-22T04:05:53;8.10;;;6.75;;
11066;SDS011;29763;50.904;5.530;2023-07-22T04:08:27;9.95;;;7.30;;
11066;SDS011;29763;50.904;5.530;2023-07-22T04:10:55;7.95;;;7.15;;
11066;SDS011;29763;50.904;5.530;2023-07-22T04:13:24;8.57;;;7.38;;
11066;SDS011;29763;50.904;5.530;2023-07-22T04:15:51;7.90;;;7.10;;
11066;SDS011;29763;50.904;5.530;2023-07-22T04:18:20;8.13;;;7.18;;
11066;SDS011;29763;50.904;5.530;2023-07-22T04:20:57;8.32;;;7.00;;
11066;SDS011;29763;50.904;5.530;2023-07-22T04:23:22;11.48;;;7.93;;
11066;SDS011;29763;50.904;5.530;2023-07-22T04:25:48;8.90;;;7.30;;
11066;SDS011;29763;50.904;5.530;2023-07-22T04:28:16;9.90;;;8.43;;
11066;SDS011;29763;50.904;5.530;2023-07-22T04:30:41;9.88;;;8.00;;
11066;SDS011;29763;50.904;5.530;2023-07-22T04:33:07;8.77;;;7.82;;
11066;SDS011;29763;50.904;5.530;2023-07-22T04:35:37;9.80;;;7.78;;
11066;SDS011;29763;50.904;5.530;2023-07-22T04:38:03;9.40;;;7.93;;
11066;SDS011;29763;50.904;5.530;2023-07-22T04:40:35;9.50;;;8.10;;
11066;SDS011;29763;50.904;5.530;2023-07-22T04:43:02;9.32;;;8.32;;
11066;SDS011;29763;50.904;5.530;2023-07-22T04:45:28;10.63;;;8.60;;
11066;SDS011;29763;50.904;5.530;2023-07-22T04:48:01;9.70;;;8.02;;
11066;SDS011;29763;50.904;5.530;2023-07-22T04:50:27;12.43;;;8.88;;
11066;SDS011;29763;50.904;5.530;2023-07-22T04:52:53;10.02;;;8.10;;
11066;SDS011;29763;50.904;5.530;2023-07-22T04:55:21;9.95;;;8.50;;
11066;SDS011;29763;50.904;5.530;2023-07-22T04:57:47;10.90;;;8.65;;
11066;SDS011;29763;50.904;5.530;2023-07-22T05:00:13;11.48;;;8.30;;
11066;SDS011;29763;50.904;5.530;2023-07-22T05:02:41;9.50;;;8.02;;
11066;SDS011;29763;50.904;5.530;2023-07-22T05:05:16;10.90;;;9.13;;
11066;SDS011;29763;50.904;5.530;2023-07-22T05:07:42;10.10;;;8.50;;
11066;SDS011;29763;50.904;5.530;2023-07-22T05:10:10;13.10;;;8.88;;
11066;SDS011;29763;50.904;5.530;2023-07-22T05:12:39;11.68;;;8.63;;
11066;SDS011;29763;50.904;5.530;2023-07-22T05:15:06;9.57;;;8.52;;
11066;SDS011;29763;50.904;5.530;2023-07-22T05:17:32;10.57;;;9.05;;
11066;SDS011;29763;50.904;5.530;2023-07-22T05:19:58;9.73;;;8.65;;
11066;SDS011;29763;50.904;5.530;2023-07-22T05:22:27;9.27;;;8.27;;
11066;SDS011;29763;50.904;5.530;2023-07-22T05:25:03;9.20;;;8.18;;
11066;SDS011;29763;50.904;5.530;2023-07-22T05:27:30;9.90;;;8.90;;
11066;SDS011;29763;50.904;5.530;2023-07-22T05:29:57;10.30;;;9.07;;
11066;SDS011;29763;50.904;5.530;2023-07-22T05:32:27;11.13;;;9.52;;
11066;SDS011;29763;50.904;5.530;2023-07-22T05:34:53;10.40;;;9.30;;
11066;SDS011;29763;50.904;5.530;2023-07-22T05:37:20;11.75;;;9.73;;
11066;SDS011;29763;50.904;5.530;2023-07-22T05:39:47;12.18;;;9.90;;
11066;SDS011;29763;50.904;5.530;2023-07-22T05:42:13;11.88;;;10.52;;
11066;SDS011;29763;50.904;5.530;2023-07-22T05:44:40;12.02;;;10.25;;
11066;SDS011;29763;50.904;5.530;2023-07-22T05:47:13;12.32;;;10.10;;
11066;SDS011;29763;50.904;5.530;2023-07-22T05:49:39;13.77;;;10.32;;
11066;SDS011;29763;50.904;5.530;2023-07-22T05:52:05;13.02;;;10.43;;
11066;SDS011;29763;50.904;5.530;2023-07-22T05:54:31;13.15;;;9.98;;
11066;SDS011;29763;50.904;5.530;2023-07-22T05:56:58;12.98;;;10.50;;
11066;SDS011;29763;50.904;5.530;2023-07-22T05:59:32;13.95;;;10.15;;
11066;SDS011;29763;50.904;5.530;2023-07-22T06:02:05;10.80;;;9.60;;
11066;SDS011;29763;50.904;5.530;2023-07-22T06:04:31;13.23;;;10.98;;
11066;SDS011;29763;50.904;5.530;2023-07-22T06:06:58;14.63;;;11.73;;
11066;SDS011;29763;50.904;5.530;2023-07-22T06:09:31;14.38;;;11.10;;
11066;SDS011;29763;50.904;5.530;2023-07-22T06:11:57;14.07;;;10.73;;
11066;SDS011;29763;50.904;5.530;2023-07-22T06:14:27;14.85;;;11.07;;
11066;SDS011;29763;50.904;5.530;2023-07-22T06:16:53;13.45;;;11.00;;
11066;SDS011;29763;50.904;5.530;2023-07-22T06:19:19;13.98;;;11.40;;
11066;SDS011;29763;50.904;5.530;2023-07-22T06:21:51;15.23;;;11.35;;
11066;SDS011;29763;50.904;5.530;2023-07-22T06:24:17;14.43;;;10.88;;
11066;SDS011;29763;50.904;5.530;2023-07-22T06:26:43;16.13;;;11.05;;
11066;SDS011;29763;50.904;5.530;2023-07-22T06:29:15;14.68;;;10.75;;
11066;SDS011;29763;50.904;5.530;2023-07-22T06:31:40;15.27;;;11.65;;
11066;SDS011;29763;50.904;5.530;2023-07-22T06:34:12;13.73;;;10.90;;
11066;SDS011;29763;50.904;5.530;2023-07-22T06:36:37;15.48;;;10.32;;
11066;SDS011;29763;50.904;5.530;2023-07-22T06:39:04;13.10;;;9.90;;
11066;SDS011;29763;50.904;5.530;2023-07-22T06:41:31;13.93;;;10.27;;
11066;SDS011;29763;50.904;5.530;2023-07-22T06:43:57;12.65;;;9.95;;
11066;SDS011;29763;50.904;5.530;2023-07-22T06:46:25;15.18;;;9.52;;
11066;SDS011;29763;50.904;5.530;2023-07-22T06:48:52;11.95;;;9.52;;
11066;SDS011;29763;50.904;5.530;2023-07-22T06:51:18;12.65;;;9.65;;
11066;SDS011;29763;50.904;5.530;2023-07-22T06:53:51;10.82;;;9.30;;
11066;SDS011;29763;50.904;5.530;2023-07-22T06:56:16;11.43;;;9.68;;
11066;SDS011;29763;50.904;5.530;2023-07-22T06:58:44;12.43;;;9.48;;
11066;SDS011;29763;50.904;5.530;2023-07-22T07:01:09;15.40;;;9.57;;
11066;SDS011;29763;50.904;5.530;2023-07-22T07:03:35;12.82;;;9.15;;
11066;SDS011;29763;50.904;5.530;2023-07-22T07:06:02;14.00;;;9.60;;
11066;SDS011;29763;50.904;5.530;2023-07-22T07:08:29;11.07;;;8.55;;
11066;SDS011;29763;50.904;5.530;2023-07-22T07:10:55;13.15;;;8.80;;
11066;SDS011;29763;50.904;5.530;2023-07-22T07:13:24;11.02;;;8.98;;
11066;SDS011;29763;50.904;5.530;2023-07-22T07:15:51;13.32;;;9.18;;
11066;SDS011;29763;50.904;5.530;2023-07-22T07:18:16;13.52;;;9.40;;
11066;SDS011;29763;50.904;5.530;2023-07-22T07:20:43;10.80;;;8.60;;
11066;SDS011;29763;50.904;5.530;2023-07-22T07:23:10;10.18;;;8.48;;
11066;SDS011;29763;50.904;5.530;2023-07-22T07:25:37;15.38;;;8.88;;
11066;SDS011;29763;50.904;5.530;2023-07-22T07:28:04;11.30;;;8.45;;
11066;SDS011;29763;50.904;5.530;2023-07-22T07:30:31;9.57;;;8.18;;
11066;SDS011;29763;50.904;5.530;2023-07-22T07:32:58;13.27;;;8.65;;
11066;SDS011;29763;50.904;5.530;2023-07-22T07:35:27;11.15;;;8.57;;
11066;SDS011;29763;50.904;5.530;2023-07-22T07:37:53;12.02;;;8.30;;
11066;SDS011;29763;50.904;5.530;2023-07-22T07:40:21;10.13;;;8.10;;
11066;SDS011;29763;50.904;5.530;2023-07-22T07:42:47;10.45;;;8.23;;
11066;SDS011;29763;50.904;5.530;2023-07-22T07:45:13;10.02;;;8.15;;
11066;SDS011;29763;50.904;5.530;2023-07-22T07:47:41;9.73;;;7.93;;
11066;SDS011;29763;50.904;5.530;2023-07-22T07:50:07;10.68;;;8.18;;
11066;SDS011;29763;50.904;5.530;2023-07-22T07:52:34;11.77;;;7.72;;
11066;SDS011;29763;50.904;5.530;2023-07-22T07:55:00;10.27;;;7.70;;
11066;SDS011;29763;50.904;5.530;2023-07-22T07:57:26;10.07;;;7.70;;
11066;SDS011;29763;50.904;5.530;2023-07-22T07:59:52;10.60;;;7.40;;
11066;SDS011;29763;50.904;5.530;2023-07-22T08:02:18;11.23;;;7.72;;
11066;SDS011;29763;50.904;5.530;2023-07-22T08:04:44;10.95;;;7.13;;
11066;SDS011;29763;50.904;5.530;2023-07-22T08:07:16;9.27;;;7.32;;
11066;SDS011;29763;50.904;5.530;2023-07-22T08:09:46;11.68;;;7.07;;
11066;SDS011;29763;50.904;5.530;2023-07-22T08:12:14;9.90;;;7.10;;
11066;SDS011;29763;50.904;5.530;2023-07-22T08:14:42;9.07;;;7.13;;
11066;SDS011;29763;50.904;5.530;2023-07-22T08:17:08;11.55;;;6.22;;
11066;SDS011;29763;50.904;5.530;2023-07-22T08:19:40;9.43;;;6.90;;
11066;SDS011;29763;50.904;5.530;2023-07-22T08:22:07;7.82;;;6.40;;
11066;SDS011;29763;50.904;5.530;2023-07-22T08:24:34;8.13;;;6.38;;
11066;SDS011;29763;50.904;5.530;2023-07-22T08:27:00;8.05;;;6.38;;
11066;SDS011;29763;50.904;5.530;2023-07-22T08:29:26;11.27;;;6.35;;
11066;SDS011;29763;50.904;5.530;2023-07-22T08:31:51;8.18;;;6.20;;
11066;SDS011;29763;50.904;5.530;2023-07-22T08:34:18;7.70;;;6.30;;
11066;SDS011;29763;50.904;5.530;2023-07-22T08:36:47;8.88;;;6.32;;
11066;SDS011;29763;50.904;5.530;2023-07-22T08:39:17;6.80;;;5.93;;
11066;SDS011;29763;50.904;5.530;2023-07-22T08:41:49;9.93;;;6.00;;
11066;SDS011;29763;50.904;5.530;2023-07-22T08:44:22;5.50;;;4.85;;
11066;SDS011;29763;50.904;5.530;2023-07-22T08:46:56;6.85;;;5.30;;
11066;SDS011;29763;50.904;5.530;2023-07-22T08:49:25;7.30;;;5.00;;
11066;SDS011;29763;50.904;5.530;2023-07-22T08:51:54;6.47;;;4.82;;
11066;SDS011;29763;50.904;5.530;2023-07-22T08:54:23;7.40;;;5.38;;
11066;SDS011;29763;50.904;5.530;2023-07-22T08:56:50;5.55;;;4.53;;
11066;SDS011;29763;50.904;5.530;2023-07-22T08:59:19;6.95;;;4.75;;
11066;SDS011;29763;50.904;5.530;2023-07-22T09:01:47;5.70;;;4.47;;
11066;SDS011;29763;50.904;5.530;2023-07-22T09:04:17;5.90;;;4.50;;
11066;SDS011;29763;50.904;5.530;2023-07-22T09:06:46;5.03;;;4.43;;
11066;SDS011;29763;50.904;5.530;2023-07-22T09:09:14;5.00;;;4.07;;
11066;SDS011;29763;50.904;5.530;2023-07-22T09:11:43;6.38;;;4.15;;
11066;SDS011;29763;50.904;5.530;2023-07-22T09:14:20;6.80;;;4.22;;
11066;SDS011;29763;50.904;5.530;2023-07-22T09:16:53;5.28;;;3.92;;
11066;SDS011;29763;50.904;5.530;2023-07-22T09:19:27;4.18;;;3.78;;
11066;SDS011;29763;50.904;5.530;2023-07-22T09:21:56;6.15;;;3.78;;
11066;SDS011;29763;50.904;5.530;2023-07-22T09:24:31;5.38;;;3.33;;
11066;SDS011;29763;50.904;5.530;2023-07-22T09:26:57;5.47;;;3.55;;
11066;SDS011;29763;50.904;5.530;2023-07-22T09:29:35;5.50;;;3.40;;
11066;SDS011;29763;50.904;5.530;2023-07-22T09:32:07;3.08;;;2.78;;
11066;SDS011;29763;50.904;5.530;2023-07-22T09:34:34;4.03;;;2.60;;
11066;SDS011;29763;50.904;5.530;2023-07-22T09:37:00;3.95;;;2.83;;
11066;SDS011;29763;50.904;5.530;2023-07-22T09:39:29;3.78;;;3.00;;
11066;SDS011;29763;50.904;5.530;2023-07-22T09:41:59;3.33;;;2.80;;
11066;SDS011;29763;50.904;5.530;2023-07-22T09:44:48;3.88;;;2.63;;
11066;SDS011;29763;50.904;5.530;2023-07-22T09:47:14;3.28;;;2.40;;
11066;SDS011;29763;50.904;5.530;2023-07-22T09:49:41;3.22;;;2.92;;
11066;SDS011;29763;50.904;5.530;2023-07-22T09:52:12;3.58;;;2.97;;
11066;SDS011;29763;50.904;5.530;2023-07-22T09:54:46;4.50;;;2.83;;
11066;SDS011;29763;50.904;5.530;2023-07-22T09:57:17;2.70;;;2.45;;
11066;SDS011;29763;50.904;5.530;2023-07-22T09:59:45;4.78;;;2.60;;
11066;SDS011;29763;50.904;5.530;2023-07-22T10:02:13;3.67;;;2.33;;
11066;SDS011;29763;50.904;5.530;2023-07-22T10:04:47;7.50;;;2.70;;
11066;SDS011;29763;50.904;5.530;2023-07-22T10:07:24;3.25;;;2.50;;
11066;SDS011;29763;50.904;5.530;2023-07-22T10:09:56;2.83;;;2.33;;
11066;SDS011;29763;50.904;5.530;2023-07-22T10:12:23;2.72;;;2.22;;
11066;SDS011;29763;50.904;5.530;2023-07-22T10:14:49;4.32;;;2.50;;
11066;SDS011;29763;50.904;5.530;2023-07-22T10:17:28;3.15;;;2.47;;
11066;SDS011;29763;50.904;5.530;2023-07-22T10:19:57;4.32;;;2.70;;
11066;SDS011;29763;50.904;5.530;2023-07-22T10:22:25;4.05;;;2.72;;
11066;SDS011;29763;50.904;5.530;2023-07-22T10:24:53;2.75;;;2.42;;
11066;SDS011;29763;50.904;5.530;2023-07-22T10:27:31;4.60;;;2.83;;
11066;SDS011;29763;50.904;5.530;2023-07-22T10:29:58;2.83;;;2.50;;
11066;SDS011;29763;50.904;5.530;2023-07-22T10:32:31;2.92;;;2.47;;
11066;SDS011;29763;50.904;5.530;2023-07-22T10:34:59;4.10;;;2.60;;
11066;SDS011;29763;50.904;5.530;2023-07-22T10:37:34;3.78;;;2.35;;
11066;SDS011;29763;50.904;5.530;2023-07-22T10:40:47;2.90;;;2.40;;
11066;SDS011;29763;50.904;5.530;2023-07-22T10:42:53;2.47;;;2.28;;
11066;SDS011;29763;50.904;5.530;2023-07-22T10:48:21;3.33;;;2.35;;
11066;SDS011;29763;50.904;5.530;2023-07-22T10:50:57;2.67;;;1.90;;
11066;SDS011;29763;50.904;5.530;2023-07-22T10:58:58;2.28;;;2.08;;
11066;SDS011;29763;50.904;5.530;2023-07-22T11:04:14;3.58;;;2.35;;
11066;SDS011;29763;50.904;5.530;2023-07-22T11:07:05;2.55;;;2.35;;
11066;SDS011;29763;50.904;5.530;2023-07-22T11:12:17;2.67;;;2.20;;
11066;SDS011;29763;50.904;5.530;2023-07-22T11:14:52;2.65;;;2.45;;
11066;SDS011;29763;50.904;5.530;2023-07-22T11:17:30;2.78;;;2.50;;
11066;SDS011;29763;50.904;5.530;2023-07-22T11:20:04;3.58;;;2.70;;
11066;SDS011;29763;50.904;5.530;2023-07-22T11:22:30;3.83;;;2.75;;
11066;SDS011;29763;50.904;5.530;2023-07-22T11:24:56;3.63;;;2.30;;
11066;SDS011;29763;50.904;5.530;2023-07-22T11:27:31;3.33;;;2.50;;
11066;SDS011;29763;50.904;5.530;2023-07-22T11:30:00;3.55;;;2.58;;
11066;SDS011;29763;50.904;5.530;2023-07-22T11:32:31;4.18;;;2.78;;
11066;SDS011;29763;50.904;5.530;2023-07-22T11:35:11;3.45;;;2.60;;
11066;SDS011;29763;50.904;5.530;2023-07-22T11:37:40;3.08;;;2.42;;
11066;SDS011;29763;50.904;5.530;2023-07-22T11:40:11;2.90;;;2.60;;
11066;SDS011;29763;50.904;5.530;2023-07-22T11:42:38;3.15;;;2.63;;
11066;SDS011;29763;50.904;5.530;2023-07-22T11:47:59;3.20;;;2.67;;
11066;SDS011;29763;50.904;5.530;2023-07-22T11:50:33;3.22;;;2.53;;
11066;SDS011;29763;50.904;5.530;2023-07-22T11:52:59;2.92;;;2.58;;
11066;SDS011;29763;50.904;5.530;2023-07-22T11:55:34;4.00;;;2.92;;
11066;SDS011;29763;50.904;5.530;2023-07-22T11:58:06;3.80;;;2.80;;
11066;SDS011;29763;50.904;5.530;2023-07-22T12:00:34;3.95;;;2.50;;
11066;SDS011;29763;50.904;5.530;2023-07-22T12:03:08;5.45;;;2.72;;
11066;SDS011;29763;50.904;5.530;2023-07-22T12:05:43;2.78;;;2.30;;
11066;SDS011;29763;50.904;5.530;2023-07-22T12:08:14;3.05;;;2.72;;
11066;SDS011;29763;50.904;5.530;2023-07-22T12:10:41;3.35;;;2.70;;
11066;SDS011;29763;50.904;5.530;2023-07-22T12:13:14;4.15;;;2.70;;
11066;SDS011;29763;50.904;5.530;2023-07-22T12:15:42;2.92;;;2.70;;
11066;SDS011;29763;50.904;5.530;2023-07-22T12:18:14;4.10;;;2.78;;
11066;SDS011;29763;50.904;5.530;2023-07-22T12:20:40;3.78;;;2.80;;
11066;SDS011;29763;50.904;5.530;2023-07-22T12:23:08;4.85;;;2.60;;
11066;SDS011;29763;50.904;5.530;2023-07-22T12:25:37;3.67;;;2.40;;
11066;SDS011;29763;50.904;5.530;2023-07-22T12:28:03;6.25;;;2.30;;
11066;SDS011;29763;50.904;5.530;2023-07-22T12:30:30;2.38;;;2.17;;
11066;SDS011;29763;50.904;5.530;2023-07-22T12:32:57;3.97;;;2.20;;
11066;SDS011;29763;50.904;5.530;2023-07-22T12:35:24;3.35;;;2.33;;
11066;SDS011;29763;50.904;5.530;2023-07-22T12:37:54;2.30;;;2.10;;
11066;SDS011;29763;50.904;5.530;2023-07-22T12:40:21;2.80;;;2.08;;
11066;SDS011;29763;50.904;5.530;2023-07-22T12:42:50;2.22;;;1.85;;
11066;SDS011;29763;50.904;5.530;2023-07-22T12:45:20;3.50;;;2.08;;
11066;SDS011;29763;50.904;5.530;2023-07-22T12:47:57;2.25;;;1.90;;
11066;SDS011;29763;50.904;5.530;2023-07-22T12:50:31;2.22;;;2.00;;
11066;SDS011;29763;50.904;5.530;2023-07-22T12:52:59;2.22;;;2.03;;
11066;SDS011;29763;50.904;5.530;2023-07-22T12:55:25;15.60;;;2.60;;
11066;SDS011;29763;50.904;5.530;2023-07-22T12:57:53;2.35;;;2.15;;
11066;SDS011;29763;50.904;5.530;2023-07-22T13:00:38;5.78;;;2.38;;
11066;SDS011;29763;50.904;5.530;2023-07-22T13:03:04;4.03;;;2.50;;
11066;SDS011;29763;50.904;5.530;2023-07-22T13:05:35;2.38;;;2.17;;
11066;SDS011;29763;50.904;5.530;2023-07-22T13:08:01;2.25;;;2.03;;
11066;SDS011;29763;50.904;5.530;2023-07-22T13:10:31;4.05;;;2.10;;
11066;SDS011;29763;50.904;5.530;2023-07-22T13:13:06;3.53;;;1.98;;
11066;SDS011;29763;50.904;5.530;2023-07-22T13:15:32;2.42;;;2.15;;
11066;SDS011;29763;50.904;5.530;2023-07-22T13:17:58;2.47;;;2.28;;
11066;SDS011;29763;50.904;5.530;2023-07-22T13:20:24;2.38;;;2.05;;
11066;SDS011;29763;50.904;5.530;2023-07-22T13:22:51;3.63;;;2.40;;
11066;SDS011;29763;50.904;5.530;2023-07-22T13:25:18;5.10;;;2.30;;
11066;SDS011;29763;50.904;5.530;2023-07-22T13:27:51;2.53;;;2.33;;
11066;SDS011;29763;50.904;5.530;2023-07-22T13:30:21;2.65;;;2.28;;
11066;SDS011;29763;50.904;5.530;2023-07-22T13:32:46;3.45;;;2.33;;
11066;SDS011;29763;50.904;5.530;2023-07-22T13:35:14;3.22;;;2.20;;
11066;SDS011;29763;50.904;5.530;2023-07-22T13:37:52;2.58;;;2.35;;
11066;SDS011;29763;50.904;5.530;2023-07-22T13:40:18;3.00;;;2.35;;
11066;SDS011;29763;50.904;5.530;2023-07-22T13:42:43;2.75;;;2.33;;
11066;SDS011;29763;50.904;5.530;2023-07-22T13:45:13;4.07;;;2.72;;
11066;SDS011;29763;50.904;5.530;2023-07-22T13:47:45;3.08;;;2.67;;
11066;SDS011;29763;50.904;5.530;2023-07-22T13:50:11;5.80;;;2.70;;
11066;SDS011;29763;50.904;5.530;2023-07-22T13:52:40;4.97;;;2.92;;
11066;SDS011;29763;50.904;5.530;2023-07-22T13:55:08;4.80;;;3.15;;
11066;SDS011;29763;50.904;5.530;2023-07-22T13:57:37;5.07;;;2.95;;
11066;SDS011;29763;50.904;5.530;2023-07-22T14:00:03;4.25;;;2.80;;
11066;SDS011;29763;50.904;5.530;2023-07-22T14:02:33;3.72;;;2.80;;
11066;SDS011;29763;50.904;5.530;2023-07-22T14:04:59;4.53;;;2.90;;
11066;SDS011;29763;50.904;5.530;2023-07-22T14:07:27;3.30;;;2.80;;
11066;SDS011;29763;50.904;5.530;2023-07-22T14:09:52;4.63;;;2.85;;
11066;SDS011;29763;50.904;5.530;2023-07-22T14:12:19;3.55;;;3.00;;
11066;SDS011;29763;50.904;5.530;2023-07-22T14:14:54;3.58;;;3.03;;
11066;SDS011;29763;50.904;5.530;2023-07-22T14:17:21;3.20;;;2.80;;
11066;SDS011;29763;50.904;5.530;2023-07-22T14:19:55;3.22;;;2.83;;
11066;SDS011;29763;50.904;5.530;2023-07-22T14:22:29;4.72;;;3.10;;
11066;SDS011;29763;50.904;5.530;2023-07-22T14:25:01;4.13;;;3.08;;
11066;SDS011;29763;50.904;5.530;2023-07-22T14:27:28;3.50;;;3.20;;
11066;SDS011;29763;50.904;5.530;2023-07-22T14:29:56;3.63;;;3.25;;
11066;SDS011;29763;50.904;5.530;2023-07-22T14:32:22;3.25;;;2.95;;
11066;SDS011;29763;50.904;5.530;2023-07-22T14:34:51;4.85;;;3.30;;
11066;SDS011;29763;50.904;5.530;2023-07-22T14:37:19;3.30;;;3.00;;
11066;SDS011;29763;50.904;5.530;2023-07-22T14:39:47;3.95;;;3.10;;
11066;SDS011;29763;50.904;5.530;2023-07-22T14:42:12;3.78;;;3.30;;
11066;SDS011;29763;50.904;5.530;2023-07-22T14:44:39;5.10;;;3.00;;
11066;SDS011;29763;50.904;5.530;2023-07-22T14:47:08;5.25;;;3.42;;
11066;SDS011;29763;50.904;5.530;2023-07-22T14:49:34;6.38;;;3.13;;
11066;SDS011;29763;50.904;5.530;2023-07-22T14:52:00;3.60;;;3.00;;
11066;SDS011;29763;50.904;5.530;2023-07-22T14:54:31;3.75;;;3.05;;
11066;SDS011;29763;50.904;5.530;2023-07-22T14:56:59;3.53;;;2.83;;
11066;SDS011;29763;50.904;5.530;2023-07-22T14:59:25;5.72;;;2.88;;
11066;SDS011;29763;50.904;5.530;2023-07-22T15:02:13;5.72;;;3.08;;
11066;SDS011;29763;50.904;5.530;2023-07-22T15:04:39;4.70;;;2.85;;
11066;SDS011;29763;50.904;5.530;2023-07-22T15:07:09;2.85;;;2.50;;
11066;SDS011;29763;50.904;5.530;2023-07-22T15:09:38;3.55;;;2.55;;
11066;SDS011;29763;50.904;5.530;2023-07-22T15:12:05;3.35;;;2.88;;
11066;SDS011;29763;50.904;5.530;2023-07-22T15:14:32;3.40;;;2.70;;
11066;SDS011;29763;50.904;5.530;2023-07-22T15:16:58;3.33;;;2.92;;
11066;SDS011;29763;50.904;5.530;2023-07-22T15:19:31;3.92;;;2.30;;
11066;SDS011;29763;50.904;5.530;2023-07-22T15:21:57;4.22;;;2.53;;
11066;SDS011;29763;50.904;5.530;2023-07-22T15:24:24;6.47;;;2.78;;
11066;SDS011;29763;50.904;5.530;2023-07-22T15:26:52;5.18;;;2.80;;
11066;SDS011;29763;50.904;5.530;2023-07-22T15:29:23;3.67;;;2.70;;
11066;SDS011;29763;50.904;5.530;2023-07-22T15:31:53;3.40;;;2.50;;
11066;SDS011;29763;50.904;5.530;2023-07-22T15:34:19;3.83;;;2.65;;
11066;SDS011;29763;50.904;5.530;2023-07-22T15:36:46;3.92;;;3.20;;
11066;SDS011;29763;50.904;5.530;2023-07-22T15:39:11;4.65;;;3.40;;
11066;SDS011;29763;50.904;5.530;2023-07-22T15:41:38;5.50;;;3.67;;
11066;SDS011;29763;50.904;5.530;2023-07-22T15:44:06;4.15;;;3.40;;
11066;SDS011;29763;50.904;5.530;2023-07-22T15:46:33;6.53;;;3.22;;
11066;SDS011;29763;50.904;5.530;2023-07-22T15:49:00;4.88;;;3.53;;
11066;SDS011;29763;50.904;5.530;2023-07-22T15:51:26;9.55;;;3.63;;
11066;SDS011;29763;50.904;5.530;2023-07-22T15:53:53;5.32;;;3.80;;
11066;SDS011;29763;50.904;5.530;2023-07-22T15:56:20;4.00;;;3.10;;
11066;SDS011;29763;50.904;5.530;2023-07-22T15:58:48;4.47;;;3.03;;
11066;SDS011;29763;50.904;5.530;2023-07-22T16:01:16;5.95;;;3.17;;
11066;SDS011;29763;50.904;5.530;2023-07-22T16:03:44;4.95;;;3.38;;
11066;SDS011;29763;50.904;5.530;2023-07-22T16:06:16;3.53;;;3.00;;
11066;SDS011;29763;50.904;5.530;2023-07-22T16:08:43;4.63;;;3.00;;
11066;SDS011;29763;50.904;5.530;2023-07-22T16:11:14;5.35;;;3.00;;
11066;SDS011;29763;50.904;5.530;2023-07-22T16:13:40;5.28;;;2.55;;
11066;SDS011;29763;50.904;5.530;2023-07-22T16:16:08;5.40;;;2.97;;
11066;SDS011;29763;50.904;5.530;2023-07-22T16:18:35;4.88;;;2.72;;
11066;SDS011;29763;50.904;5.530;2023-07-22T16:21:07;6.50;;;3.10;;
11066;SDS011;29763;50.904;5.530;2023-07-22T16:23:33;8.15;;;3.28;;
11066;SDS011;29763;50.904;5.530;2023-07-22T16:26:03;4.28;;;2.78;;
11066;SDS011;29763;50.904;5.530;2023-07-22T16:28:30;3.28;;;2.97;;
11066;SDS011;29763;50.904;5.530;2023-07-22T16:30:55;7.40;;;3.10;;